sensor_id;sensor_type;location;lat;lon;timestamp;P1;durP1;ratioP1;P2;durP2;ratioP2
10653;SDS011;5375;51.250;6.776;2023-04-24T00:00:08;0.70;;;0.50;;
10653;SDS011;5375;51.250;6.776;2023-04-24T00:02:34;0.93;;;0.47;;
10653;SDS011;5375;51.250;6.776;2023-04-24T00:05:02;0.57;;;0.37;;
10653;SDS011;5375;51.250;6.776;2023-04-24T00:07:29;0.70;;;0.50;;
10653;SDS011;5375;51.250;6.776;2023-04-24T00:09:55;1.07;;;0.50;;
10653;SDS011;5375;51.250;6.776;2023-04-24T00:12:21;0.80;;;0.50;;
10653;SDS011;5375;51.250;6.776;2023-04-24T00:14:46;0.83;;;0.50;;
10653;SDS011;5375;51.250;6.776;2023-04-24T00:17:12;1.00;;;0.30;;
10653;SDS011;5375;51.250;6.776;2023-04-24T00:19:38;2.10;;;0.60;;
10653;SDS011;5375;51.250;6.776;2023-04-24T00:22:03;0.60;;;0.50;;
10653;SDS011;5375;51.250;6.776;2023-04-24T00:24:29;0.80;;;0.50;;
10653;SDS011;5375;51.250;6.776;2023-04-24T00:26:55;1.20;;;0.30;;
10653;SDS011;5375;51.250;6.776;2023-04-24T00:29:20;0.40;;;0.40;;
10653;SDS011;5375;51.250;6.776;2023-04-24T00:31:46;1.07;;;0.43;;
10653;SDS011;5375;51.250;6.776;2023-04-24T00:34:12;1.53;;;0.70;;
10653;SDS011;5375;51.250;6.776;2023-04-24T00:36:37;0.77;;;0.40;;
10653;SDS011;5375;51.250;6.776;2023-04-24T00:39:03;1.40;;;0.40;;
10653;SDS011;5375;51.250;6.776;2023-04-24T00:41:29;0.50;;;0.40;;
10653;SDS011;5375;51.250;6.776;2023-04-24T00:43:55;0.70;;;0.40;;
10653;SDS011;5375;51.250;6.776;2023-04-24T00:46:20;1.27;;;0.40;;
10653;SDS011;5375;51.250;6.776;2023-04-24T00:48:46;0.77;;;0.50;;
10653;SDS011;5375;51.250;6.776;2023-04-24T00:51:12;1.17;;;0.40;;
10653;SDS011;5375;51.250;6.776;2023-04-24T00:53:38;0.50;;;0.50;;
10653;SDS011;5375;51.250;6.776;2023-04-24T00:56:03;0.73;;;0.50;;
10653;SDS011;5375;51.250;6.776;2023-04-24T00:58:30;1.30;;;0.50;;
10653;SDS011;5375;51.250;6.776;2023-04-24T01:00:56;0.93;;;0.50;;
10653;SDS011;5375;51.250;6.776;2023-04-24T01:03:26;1.03;;;0.50;;
10653;SDS011;5375;51.250;6.776;2023-04-24T01:05:55;0.80;;;0.50;;
10653;SDS011;5375;51.250;6.776;2023-04-24T01:08:22;0.60;;;0.50;;
10653;SDS011;5375;51.250;6.776;2023-04-24T01:10:49;0.70;;;0.30;;
10653;SDS011;5375;51.250;6.776;2023-04-24T01:13:17;0.70;;;0.40;;
10653;SDS011;5375;51.250;6.776;2023-04-24T01:15:43;0.53;;;0.47;;
10653;SDS011;5375;51.250;6.776;2023-04-24T01:18:09;0.60;;;0.50;;
10653;SDS011;5375;51.250;6.776;2023-04-24T01:20:35;1.13;;;0.50;;
10653;SDS011;5375;51.250;6.776;2023-04-24T01:23:04;0.40;;;0.37;;
10653;SDS011;5375;51.250;6.776;2023-04-24T01:25:30;1.23;;;0.50;;
10653;SDS011;5375;51.250;6.776;2023-04-24T01:27:56;0.80;;;0.57;;
10653;SDS011;5375;51.250;6.776;2023-04-24T01:30:23;1.17;;;0.50;;
10653;SDS011;5375;51.250;6.776;2023-04-24T01:32:49;0.70;;;0.50;;
10653;SDS011;5375;51.250;6.776;2023-04-24T01:35:15;2.23;;;0.60;;
10653;SDS011;5375;51.250;6.776;2023-04-24T01:37:41;1.00;;;0.50;;
10653;SDS011;5375;51.250;6.776;2023-04-24T01:40:07;0.67;;;0.40;;
10653;SDS011;5375;51.250;6.776;2023-04-24T01:42:33;0.87;;;0.40;;
10653;SDS011;5375;51.250;6.776;2023-04-24T01:44:59;0.40;;;0.40;;
10653;SDS011;5375;51.250;6.776;2023-04-24T01:47:26;0.93;;;0.50;;
10653;SDS011;5375;51.250;6.776;2023-04-24T01:49:52;0.40;;;0.40;;
10653;SDS011;5375;51.250;6.776;2023-04-24T01:52:18;1.33;;;0.60;;
10653;SDS011;5375;51.250;6.776;2023-04-24T01:54:44;0.90;;;0.50;;
10653;SDS011;5375;51.250;6.776;2023-04-24T01:57:10;1.03;;;0.50;;
10653;SDS011;5375;51.250;6.776;2023-04-24T01:59:36;1.80;;;0.57;;
10653;SDS011;5375;51.250;6.776;2023-04-24T02:02:04;0.70;;;0.60;;
10653;SDS011;5375;51.250;6.776;2023-04-24T02:04:30;2.33;;;0.50;;
10653;SDS011;5375;51.250;6.776;2023-04-24T02:06:56;3.10;;;0.50;;
10653;SDS011;5375;51.250;6.776;2023-04-24T02:09:22;6.17;;;0.67;;
10653;SDS011;5375;51.250;6.776;2023-04-24T02:11:47;5.30;;;1.10;;
10653;SDS011;5375;51.250;6.776;2023-04-24T02:14:13;3.07;;;0.60;;
10653;SDS011;5375;51.250;6.776;2023-04-24T02:16:38;3.30;;;0.70;;
10653;SDS011;5375;51.250;6.776;2023-04-24T02:19:04;1.10;;;0.83;;
10653;SDS011;5375;51.250;6.776;2023-04-24T02:21:30;1.93;;;0.50;;
10653;SDS011;5375;51.250;6.776;2023-04-24T02:23:58;2.90;;;0.80;;
10653;SDS011;5375;51.250;6.776;2023-04-24T02:26:23;1.23;;;0.70;;
10653;SDS011;5375;51.250;6.776;2023-04-24T02:28:49;3.53;;;1.00;;
10653;SDS011;5375;51.250;6.776;2023-04-24T02:31:15;2.93;;;0.70;;
10653;SDS011;5375;51.250;6.776;2023-04-24T02:33:41;1.53;;;0.90;;
10653;SDS011;5375;51.250;6.776;2023-04-24T02:36:06;2.00;;;0.87;;
10653;SDS011;5375;51.250;6.776;2023-04-24T02:38:32;1.30;;;0.80;;
10653;SDS011;5375;51.250;6.776;2023-04-24T02:40:58;1.00;;;0.90;;
10653;SDS011;5375;51.250;6.776;2023-04-24T02:43:24;1.53;;;0.90;;
10653;SDS011;5375;51.250;6.776;2023-04-24T04:09:23;6.57;;;1.80;;
10653;SDS011;5375;51.250;6.776;2023-04-24T04:11:48;2.80;;;1.63;;
10653;SDS011;5375;51.250;6.776;2023-04-24T04:14:14;3.07;;;1.60;;
10653;SDS011;5375;51.250;6.776;2023-04-24T04:16:40;2.40;;;1.40;;
10653;SDS011;5375;51.250;6.776;2023-04-24T04:19:05;2.47;;;1.33;;
10653;SDS011;5375;51.250;6.776;2023-04-24T04:21:31;2.03;;;1.40;;
10653;SDS011;5375;51.250;6.776;2023-04-24T04:23:57;19.60;;;1.63;;
10653;SDS011;5375;51.250;6.776;2023-04-24T04:26:23;7.77;;;2.23;;
10653;SDS011;5375;51.250;6.776;2023-04-24T04:28:51;6.47;;;3.00;;
10653;SDS011;5375;51.250;6.776;2023-04-24T04:31:17;18.57;;;2.83;;
10653;SDS011;5375;51.250;6.776;2023-04-24T04:33:44;4.17;;;2.30;;
10653;SDS011;5375;51.250;6.776;2023-04-24T04:36:10;4.27;;;2.57;;
10653;SDS011;5375;51.250;6.776;2023-04-24T04:38:35;8.23;;;3.00;;
10653;SDS011;5375;51.250;6.776;2023-04-24T04:41:02;4.97;;;2.73;;
10653;SDS011;5375;51.250;6.776;2023-04-24T04:43:28;4.93;;;2.50;;
10653;SDS011;5375;51.250;6.776;2023-04-24T04:45:53;4.77;;;2.03;;
10653;SDS011;5375;51.250;6.776;2023-04-24T04:48:20;3.97;;;1.93;;
10653;SDS011;5375;51.250;6.776;2023-04-24T04:50:47;4.93;;;1.80;;
10653;SDS011;5375;51.250;6.776;2023-04-24T04:53:12;2.77;;;1.67;;
10653;SDS011;5375;51.250;6.776;2023-04-24T04:55:38;2.63;;;1.63;;
10653;SDS011;5375;51.250;6.776;2023-04-24T04:58:04;3.00;;;1.60;;
10653;SDS011;5375;51.250;6.776;2023-04-24T05:00:29;3.13;;;1.80;;
10653;SDS011;5375;51.250;6.776;2023-04-24T05:03:00;4.13;;;1.50;;
10653;SDS011;5375;51.250;6.776;2023-04-24T05:05:26;4.97;;;1.63;;
10653;SDS011;5375;51.250;6.776;2023-04-24T05:07:51;2.47;;;1.67;;
10653;SDS011;5375;51.250;6.776;2023-04-24T05:10:17;3.07;;;1.70;;
10653;SDS011;5375;51.250;6.776;2023-04-24T05:12:43;4.37;;;1.47;;
10653;SDS011;5375;51.250;6.776;2023-04-24T05:15:08;2.07;;;1.57;;
10653;SDS011;5375;51.250;6.776;2023-04-24T05:17:34;3.00;;;1.60;;
10653;SDS011;5375;51.250;6.776;2023-04-24T05:20:00;4.23;;;1.50;;
10653;SDS011;5375;51.250;6.776;2023-04-24T05:22:27;3.47;;;1.70;;
10653;SDS011;5375;51.250;6.776;2023-04-24T05:24:53;2.77;;;1.67;;
10653;SDS011;5375;51.250;6.776;2023-04-24T05:27:18;2.60;;;1.40;;
10653;SDS011;5375;51.250;6.776;2023-04-24T05:29:45;2.80;;;1.40;;
10653;SDS011;5375;51.250;6.776;2023-04-24T05:32:11;3.47;;;1.40;;
10653;SDS011;5375;51.250;6.776;2023-04-24T05:34:36;2.13;;;1.30;;
10653;SDS011;5375;51.250;6.776;2023-04-24T05:37:02;2.30;;;1.30;;
10653;SDS011;5375;51.250;6.776;2023-04-24T05:39:28;2.70;;;1.40;;
10653;SDS011;5375;51.250;6.776;2023-04-24T05:41:54;3.20;;;1.60;;
10653;SDS011;5375;51.250;6.776;2023-04-24T05:44:22;2.50;;;1.40;;
10653;SDS011;5375;51.250;6.776;2023-04-24T05:46:48;3.53;;;1.50;;
10653;SDS011;5375;51.250;6.776;2023-04-24T05:49:14;1.53;;;1.43;;
10653;SDS011;5375;51.250;6.776;2023-04-24T05:51:39;2.37;;;1.43;;
10653;SDS011;5375;51.250;6.776;2023-04-24T05:54:05;3.37;;;1.60;;
10653;SDS011;5375;51.250;6.776;2023-04-24T05:56:30;2.93;;;1.40;;
10653;SDS011;5375;51.250;6.776;2023-04-24T05:58:56;8.27;;;1.60;;
10653;SDS011;5375;51.250;6.776;2023-04-24T06:01:22;3.27;;;1.53;;
10653;SDS011;5375;51.250;6.776;2023-04-24T06:03:48;1.47;;;1.20;;
10653;SDS011;5375;51.250;6.776;2023-04-24T06:06:13;2.53;;;1.43;;
10653;SDS011;5375;51.250;6.776;2023-04-24T06:08:40;2.10;;;1.50;;
10653;SDS011;5375;51.250;6.776;2023-04-24T06:11:07;3.53;;;1.30;;
10653;SDS011;5375;51.250;6.776;2023-04-24T06:13:33;1.60;;;1.17;;
10653;SDS011;5375;51.250;6.776;2023-04-24T06:15:58;2.57;;;1.30;;
10653;SDS011;5375;51.250;6.776;2023-04-24T06:18:24;3.80;;;1.50;;
10653;SDS011;5375;51.250;6.776;2023-04-24T06:20:49;3.13;;;1.43;;
10653;SDS011;5375;51.250;6.776;2023-04-24T06:23:15;1.67;;;1.23;;
10653;SDS011;5375;51.250;6.776;2023-04-24T06:25:41;1.90;;;1.27;;
10653;SDS011;5375;51.250;6.776;2023-04-24T06:28:06;1.77;;;1.10;;
10653;SDS011;5375;51.250;6.776;2023-04-24T06:30:32;1.93;;;1.50;;
10653;SDS011;5375;51.250;6.776;2023-04-24T06:32:57;2.07;;;1.27;;
10653;SDS011;5375;51.250;6.776;2023-04-24T06:35:23;2.70;;;1.30;;
10653;SDS011;5375;51.250;6.776;2023-04-24T06:37:49;2.53;;;1.10;;
10653;SDS011;5375;51.250;6.776;2023-04-24T06:40:15;3.33;;;1.27;;
10653;SDS011;5375;51.250;6.776;2023-04-24T06:42:40;4.07;;;1.50;;
10653;SDS011;5375;51.250;6.776;2023-04-24T06:45:07;2.63;;;1.23;;
10653;SDS011;5375;51.250;6.776;2023-04-24T06:47:33;2.37;;;1.37;;
10653;SDS011;5375;51.250;6.776;2023-04-24T06:49:58;2.47;;;1.23;;
10653;SDS011;5375;51.250;6.776;2023-04-24T06:52:24;1.70;;;1.30;;
10653;SDS011;5375;51.250;6.776;2023-04-24T06:54:49;2.23;;;1.40;;
10653;SDS011;5375;51.250;6.776;2023-04-24T06:57:15;1.53;;;1.20;;
10653;SDS011;5375;51.250;6.776;2023-04-24T06:59:41;3.07;;;1.47;;
10653;SDS011;5375;51.250;6.776;2023-04-24T07:02:07;3.63;;;1.10;;
10653;SDS011;5375;51.250;6.776;2023-04-24T07:04:33;1.73;;;1.10;;
10653;SDS011;5375;51.250;6.776;2023-04-24T07:06:58;2.00;;;1.40;;
10653;SDS011;5375;51.250;6.776;2023-04-24T07:09:25;2.60;;;1.20;;
10653;SDS011;5375;51.250;6.776;2023-04-24T07:11:53;2.90;;;1.03;;
10653;SDS011;5375;51.250;6.776;2023-04-24T07:14:21;1.27;;;1.00;;
10653;SDS011;5375;51.250;6.776;2023-04-24T07:16:47;2.17;;;1.30;;
10653;SDS011;5375;51.250;6.776;2023-04-24T07:19:13;1.57;;;1.20;;
10653;SDS011;5375;51.250;6.776;2023-04-24T07:21:39;1.93;;;0.90;;
10653;SDS011;5375;51.250;6.776;2023-04-24T07:24:04;1.60;;;1.30;;
10653;SDS011;5375;51.250;6.776;2023-04-24T07:26:30;2.43;;;1.27;;
10653;SDS011;5375;51.250;6.776;2023-04-24T07:28:56;1.17;;;1.03;;
10653;SDS011;5375;51.250;6.776;2023-04-24T07:31:22;1.57;;;1.00;;
10653;SDS011;5375;51.250;6.776;2023-04-24T07:33:47;2.47;;;1.17;;
10653;SDS011;5375;51.250;6.776;2023-04-24T07:36:13;1.53;;;1.07;;
10653;SDS011;5375;51.250;6.776;2023-04-24T07:38:44;1.97;;;1.10;;
10653;SDS011;5375;51.250;6.776;2023-04-24T07:41:11;2.33;;;1.40;;
10653;SDS011;5375;51.250;6.776;2023-04-24T07:43:37;1.47;;;1.10;;
10653;SDS011;5375;51.250;6.776;2023-04-24T07:46:03;2.27;;;1.20;;
10653;SDS011;5375;51.250;6.776;2023-04-24T07:48:28;1.23;;;1.10;;
10653;SDS011;5375;51.250;6.776;2023-04-24T07:50:54;1.53;;;1.23;;
10653;SDS011;5375;51.250;6.776;2023-04-24T07:53:20;1.70;;;1.00;;
10653;SDS011;5375;51.250;6.776;2023-04-24T07:55:45;1.93;;;1.20;;
10653;SDS011;5375;51.250;6.776;2023-04-24T07:58:11;2.07;;;1.13;;
10653;SDS011;5375;51.250;6.776;2023-04-24T08:00:37;1.33;;;0.90;;
10653;SDS011;5375;51.250;6.776;2023-04-24T08:03:02;2.13;;;1.07;;
10653;SDS011;5375;51.250;6.776;2023-04-24T08:05:28;2.33;;;1.30;;
10653;SDS011;5375;51.250;6.776;2023-04-24T08:07:54;1.80;;;1.00;;
10653;SDS011;5375;51.250;6.776;2023-04-24T08:10:20;1.87;;;1.03;;
10653;SDS011;5375;51.250;6.776;2023-04-24T08:12:47;1.90;;;0.93;;
10653;SDS011;5375;51.250;6.776;2023-04-24T08:15:12;1.27;;;0.90;;
10653;SDS011;5375;51.250;6.776;2023-04-24T08:17:38;1.57;;;0.97;;
10653;SDS011;5375;51.250;6.776;2023-04-24T08:20:03;1.33;;;0.83;;
10653;SDS011;5375;51.250;6.776;2023-04-24T08:22:30;1.53;;;1.00;;
10653;SDS011;5375;51.250;6.776;2023-04-24T08:24:56;1.23;;;1.00;;
10653;SDS011;5375;51.250;6.776;2023-04-24T08:27:22;1.20;;;0.90;;
10653;SDS011;5375;51.250;6.776;2023-04-24T08:29:52;2.20;;;0.80;;
10653;SDS011;5375;51.250;6.776;2023-04-24T08:32:18;1.07;;;0.83;;
10653;SDS011;5375;51.250;6.776;2023-04-24T08:34:44;1.40;;;1.00;;
10653;SDS011;5375;51.250;6.776;2023-04-24T08:37:10;3.17;;;1.00;;
10653;SDS011;5375;51.250;6.776;2023-04-24T08:39:36;0.73;;;0.73;;
10653;SDS011;5375;51.250;6.776;2023-04-24T08:42:02;1.10;;;0.70;;
10653;SDS011;5375;51.250;6.776;2023-04-24T08:44:32;1.20;;;0.80;;
10653;SDS011;5375;51.250;6.776;2023-04-24T08:46:59;2.10;;;0.97;;
10653;SDS011;5375;51.250;6.776;2023-04-24T08:49:26;1.53;;;0.97;;
10653;SDS011;5375;51.250;6.776;2023-04-24T08:51:53;1.00;;;0.90;;
10653;SDS011;5375;51.250;6.776;2023-04-24T08:54:19;1.23;;;0.90;;
10653;SDS011;5375;51.250;6.776;2023-04-24T08:56:45;1.37;;;0.90;;
10653;SDS011;5375;51.250;6.776;2023-04-24T08:59:13;0.90;;;0.80;;
10653;SDS011;5375;51.250;6.776;2023-04-24T09:01:40;1.00;;;0.77;;
10653;SDS011;5375;51.250;6.776;2023-04-24T09:04:07;0.90;;;0.80;;
10653;SDS011;5375;51.250;6.776;2023-04-24T09:06:38;0.73;;;0.73;;
10653;SDS011;5375;51.250;6.776;2023-04-24T09:09:04;1.50;;;0.80;;
10653;SDS011;5375;51.250;6.776;2023-04-24T09:11:30;1.13;;;0.80;;
10653;SDS011;5375;51.250;6.776;2023-04-24T09:13:59;2.90;;;0.97;;
10653;SDS011;5375;51.250;6.776;2023-04-24T09:16:26;1.83;;;0.90;;
10653;SDS011;5375;51.250;6.776;2023-04-24T09:18:52;1.00;;;0.70;;
10653;SDS011;5375;51.250;6.776;2023-04-24T09:21:19;1.17;;;0.90;;
10653;SDS011;5375;51.250;6.776;2023-04-24T09:23:46;1.00;;;0.70;;
10653;SDS011;5375;51.250;6.776;2023-04-24T09:26:11;0.73;;;0.70;;
10653;SDS011;5375;51.250;6.776;2023-04-24T09:28:41;1.67;;;0.90;;
10653;SDS011;5375;51.250;6.776;2023-04-24T09:33:56;0.97;;;0.83;;
10653;SDS011;5375;51.250;6.776;2023-04-24T09:36:31;0.90;;;0.80;;
10653;SDS011;5375;51.250;6.776;2023-04-24T09:39:01;1.10;;;0.87;;
10653;SDS011;5375;51.250;6.776;2023-04-24T09:41:29;2.00;;;0.70;;
10653;SDS011;5375;51.250;6.776;2023-04-24T09:43:55;1.53;;;0.70;;
10653;SDS011;5375;51.250;6.776;2023-04-24T09:46:28;1.17;;;0.90;;
10653;SDS011;5375;51.250;6.776;2023-04-24T09:48:55;2.97;;;1.20;;
10653;SDS011;5375;51.250;6.776;2023-04-24T09:51:32;1.07;;;0.93;;
10653;SDS011;5375;51.250;6.776;2023-04-24T09:54:03;0.97;;;0.87;;
10653;SDS011;5375;51.250;6.776;2023-04-24T09:56:32;1.93;;;0.90;;
10653;SDS011;5375;51.250;6.776;2023-04-24T09:59:08;1.33;;;0.80;;
10653;SDS011;5375;51.250;6.776;2023-04-24T10:01:33;1.30;;;0.83;;
10653;SDS011;5375;51.250;6.776;2023-04-24T10:03:59;2.10;;;1.07;;
10653;SDS011;5375;51.250;6.776;2023-04-24T10:06:33;1.00;;;0.80;;
10653;SDS011;5375;51.250;6.776;2023-04-24T10:08:59;1.50;;;0.90;;
10653;SDS011;5375;51.250;6.776;2023-04-24T10:11:26;2.57;;;0.90;;
10653;SDS011;5375;51.250;6.776;2023-04-24T10:13:53;1.00;;;0.80;;
10653;SDS011;5375;51.250;6.776;2023-04-24T10:16:19;1.23;;;0.90;;
10653;SDS011;5375;51.250;6.776;2023-04-24T10:18:47;0.90;;;0.80;;
10653;SDS011;5375;51.250;6.776;2023-04-24T10:21:14;1.43;;;1.03;;
10653;SDS011;5375;51.250;6.776;2023-04-24T10:23:41;0.70;;;0.70;;
10653;SDS011;5375;51.250;6.776;2023-04-24T10:26:12;1.03;;;0.83;;
10653;SDS011;5375;51.250;6.776;2023-04-24T10:28:45;0.80;;;0.70;;
10653;SDS011;5375;51.250;6.776;2023-04-24T10:31:12;0.80;;;0.67;;
10653;SDS011;5375;51.250;6.776;2023-04-24T10:33:39;1.40;;;1.00;;
10653;SDS011;5375;51.250;6.776;2023-04-24T10:36:08;1.10;;;0.90;;
10653;SDS011;5375;51.250;6.776;2023-04-24T10:38:35;0.93;;;0.83;;
10653;SDS011;5375;51.250;6.776;2023-04-24T10:41:11;1.10;;;0.90;;
10653;SDS011;5375;51.250;6.776;2023-04-24T10:43:41;1.43;;;0.90;;
10653;SDS011;5375;51.250;6.776;2023-04-24T10:46:07;1.00;;;0.80;;
10653;SDS011;5375;51.250;6.776;2023-04-24T10:48:35;0.80;;;0.80;;
10653;SDS011;5375;51.250;6.776;2023-04-24T10:51:01;0.70;;;0.67;;
10653;SDS011;5375;51.250;6.776;2023-04-24T10:53:28;1.90;;;0.90;;
10653;SDS011;5375;51.250;6.776;2023-04-24T10:56:05;1.00;;;0.80;;
10653;SDS011;5375;51.250;6.776;2023-04-24T10:58:39;1.00;;;0.80;;
10653;SDS011;5375;51.250;6.776;2023-04-24T11:01:32;0.80;;;0.73;;
10653;SDS011;5375;51.250;6.776;2023-04-24T11:03:58;1.60;;;0.70;;
10653;SDS011;5375;51.250;6.776;2023-04-24T11:06:31;1.23;;;0.80;;
10653;SDS011;5375;51.250;6.776;2023-04-24T11:09:01;1.30;;;0.90;;
10653;SDS011;5375;51.250;6.776;2023-04-24T11:11:32;1.80;;;0.70;;
10653;SDS011;5375;51.250;6.776;2023-04-24T11:19:02;0.87;;;0.70;;
10653;SDS011;5375;51.250;6.776;2023-04-24T11:21:38;1.00;;;0.70;;
10653;SDS011;5375;51.250;6.776;2023-04-24T11:24:29;2.20;;;0.90;;
10653;SDS011;5375;51.250;6.776;2023-04-24T11:27:06;2.40;;;0.83;;
10653;SDS011;5375;51.250;6.776;2023-04-24T11:29:40;1.73;;;0.73;;
10653;SDS011;5375;51.250;6.776;2023-04-24T11:32:28;7.07;;;1.00;;
10653;SDS011;5375;51.250;6.776;2023-04-24T11:37:29;1.70;;;0.87;;
10653;SDS011;5375;51.250;6.776;2023-04-24T11:40:03;1.87;;;0.80;;
10653;SDS011;5375;51.250;6.776;2023-04-24T11:42:34;1.83;;;0.90;;
10653;SDS011;5375;51.250;6.776;2023-04-24T11:45:10;1.00;;;0.83;;
10653;SDS011;5375;51.250;6.776;2023-04-24T11:47:37;1.20;;;0.83;;
10653;SDS011;5375;51.250;6.776;2023-04-24T11:50:04;1.80;;;0.73;;
10653;SDS011;5375;51.250;6.776;2023-04-24T11:52:31;1.17;;;0.80;;
10653;SDS011;5375;51.250;6.776;2023-04-24T11:55:03;1.13;;;0.80;;
10653;SDS011;5375;51.250;6.776;2023-04-24T11:57:29;2.00;;;0.87;;
10653;SDS011;5375;51.250;6.776;2023-04-24T11:59:59;1.33;;;0.80;;
10653;SDS011;5375;51.250;6.776;2023-04-24T12:02:26;1.27;;;0.80;;
10653;SDS011;5375;51.250;6.776;2023-04-24T12:04:55;0.87;;;0.70;;
10653;SDS011;5375;51.250;6.776;2023-04-24T12:07:21;0.80;;;0.70;;
10653;SDS011;5375;51.250;6.776;2023-04-24T12:09:49;1.43;;;0.97;;
10653;SDS011;5375;51.250;6.776;2023-04-24T12:12:20;0.80;;;0.80;;
10653;SDS011;5375;51.250;6.776;2023-04-24T12:14:52;0.90;;;0.70;;
10653;SDS011;5375;51.250;6.776;2023-04-24T12:17:26;2.20;;;1.20;;
10653;SDS011;5375;51.250;6.776;2023-04-24T12:20:03;1.10;;;0.80;;
10653;SDS011;5375;51.250;6.776;2023-04-24T12:22:51;1.50;;;1.00;;
10653;SDS011;5375;51.250;6.776;2023-04-24T12:25:24;1.13;;;0.63;;
10653;SDS011;5375;51.250;6.776;2023-04-24T12:28:08;1.40;;;0.90;;
10653;SDS011;5375;51.250;6.776;2023-04-24T12:31:06;2.90;;;0.83;;
10653;SDS011;5375;51.250;6.776;2023-04-24T12:33:33;1.20;;;0.83;;
10653;SDS011;5375;51.250;6.776;2023-04-24T12:36:00;1.07;;;0.97;;
10653;SDS011;5375;51.250;6.776;2023-04-24T12:38:28;1.47;;;0.87;;
10653;SDS011;5375;51.250;6.776;2023-04-24T12:41:10;0.73;;;0.70;;
10653;SDS011;5375;51.250;6.776;2023-04-24T12:43:38;1.73;;;0.80;;
10653;SDS011;5375;51.250;6.776;2023-04-24T12:46:03;1.57;;;0.80;;
10653;SDS011;5375;51.250;6.776;2023-04-24T12:48:30;1.17;;;0.77;;
10653;SDS011;5375;51.250;6.776;2023-04-24T12:50:59;1.57;;;0.90;;
10653;SDS011;5375;51.250;6.776;2023-04-24T12:53:28;3.33;;;0.63;;
10653;SDS011;5375;51.250;6.776;2023-04-24T12:55:57;0.83;;;0.70;;
10653;SDS011;5375;51.250;6.776;2023-04-24T12:58:23;1.20;;;0.83;;
10653;SDS011;5375;51.250;6.776;2023-04-24T13:00:49;0.93;;;0.60;;
10653;SDS011;5375;51.250;6.776;2023-04-24T13:03:15;1.03;;;0.90;;
10653;SDS011;5375;51.250;6.776;2023-04-24T15:16:01;1.10;;;0.57;;
10653;SDS011;5375;51.250;6.776;2023-04-24T15:49:09;0.80;;;0.50;;
10653;SDS011;5375;51.250;6.776;2023-04-24T15:51:43;2.00;;;0.70;;
10653;SDS011;5375;51.250;6.776;2023-04-24T15:54:09;1.43;;;0.70;;
10653;SDS011;5375;51.250;6.776;2023-04-24T15:56:35;1.23;;;0.70;;
10653;SDS011;5375;51.250;6.776;2023-04-24T15:59:01;0.90;;;0.50;;
10653;SDS011;5375;51.250;6.776;2023-04-24T16:01:28;1.90;;;0.60;;
10653;SDS011;5375;51.250;6.776;2023-04-24T16:03:55;1.47;;;0.70;;
10653;SDS011;5375;51.250;6.776;2023-04-24T16:06:21;0.98;;;0.60;;
10653;SDS011;5375;51.250;6.776;2023-04-24T16:08:47;1.10;;;0.53;;
10653;SDS011;5375;51.250;6.776;2023-04-24T16:11:23;1.00;;;0.50;;
10653;SDS011;5375;51.250;6.776;2023-04-24T16:13:49;1.53;;;1.30;;
10653;SDS011;5375;51.250;6.776;2023-04-24T16:16:14;0.87;;;0.60;;
10653;SDS011;5375;51.250;6.776;2023-04-24T16:18:40;0.70;;;0.60;;
10653;SDS011;5375;51.250;6.776;2023-04-24T16:21:12;1.40;;;0.47;;
10653;SDS011;5375;51.250;6.776;2023-04-24T16:23:37;1.47;;;0.70;;
10653;SDS011;5375;51.250;6.776;2023-04-24T16:26:06;1.00;;;0.60;;
10653;SDS011;5375;51.250;6.776;2023-04-24T16:28:31;1.03;;;0.57;;
10653;SDS011;5375;51.250;6.776;2023-04-24T16:30:57;1.30;;;0.53;;
10653;SDS011;5375;51.250;6.776;2023-04-24T16:33:23;0.80;;;0.60;;
10653;SDS011;5375;51.250;6.776;2023-04-24T16:35:50;2.30;;;0.77;;
10653;SDS011;5375;51.250;6.776;2023-04-24T16:38:16;1.13;;;0.70;;
10653;SDS011;5375;51.250;6.776;2023-04-24T16:40:41;2.10;;;0.80;;
10653;SDS011;5375;51.250;6.776;2023-04-24T16:43:07;0.60;;;0.50;;
10653;SDS011;5375;51.250;6.776;2023-04-24T16:45:36;1.23;;;0.83;;
10653;SDS011;5375;51.250;6.776;2023-04-24T16:48:02;1.43;;;0.67;;
10653;SDS011;5375;51.250;6.776;2023-04-24T16:50:28;0.80;;;0.60;;
10653;SDS011;5375;51.250;6.776;2023-04-24T16:52:53;1.23;;;0.70;;
10653;SDS011;5375;51.250;6.776;2023-04-24T16:55:19;0.90;;;0.60;;
10653;SDS011;5375;51.250;6.776;2023-04-24T16:57:44;1.00;;;0.57;;
10653;SDS011;5375;51.250;6.776;2023-04-24T17:00:10;0.87;;;0.60;;
10653;SDS011;5375;51.250;6.776;2023-04-24T17:02:36;1.03;;;0.70;;
10653;SDS011;5375;51.250;6.776;2023-04-24T17:05:02;1.27;;;0.50;;
10653;SDS011;5375;51.250;6.776;2023-04-24T17:07:29;1.83;;;0.70;;
10653;SDS011;5375;51.250;6.776;2023-04-24T17:09:55;1.67;;;0.57;;
10653;SDS011;5375;51.250;6.776;2023-04-24T17:12:21;0.73;;;0.70;;
10653;SDS011;5375;51.250;6.776;2023-04-24T17:14:47;0.73;;;0.50;;
10653;SDS011;5375;51.250;6.776;2023-04-24T17:17:12;1.27;;;0.60;;
10653;SDS011;5375;51.250;6.776;2023-04-24T17:19:38;0.97;;;0.60;;
10653;SDS011;5375;51.250;6.776;2023-04-24T17:22:08;2.15;;;0.70;;
10653;SDS011;5375;51.250;6.776;2023-04-24T17:24:34;1.17;;;0.70;;
10653;SDS011;5375;51.250;6.776;2023-04-24T17:27:00;1.03;;;0.80;;
10653;SDS011;5375;51.250;6.776;2023-04-24T17:29:27;1.60;;;0.63;;
10653;SDS011;5375;51.250;6.776;2023-04-24T17:31:53;0.80;;;0.60;;
10653;SDS011;5375;51.250;6.776;2023-04-24T17:34:19;0.90;;;0.70;;
10653;SDS011;5375;51.250;6.776;2023-04-24T17:36:45;0.90;;;0.50;;
10653;SDS011;5375;51.250;6.776;2023-04-24T17:39:10;0.67;;;0.53;;
10653;SDS011;5375;51.250;6.776;2023-04-24T17:41:36;1.43;;;0.80;;
10653;SDS011;5375;51.250;6.776;2023-04-24T17:44:02;2.27;;;0.70;;
10653;SDS011;5375;51.250;6.776;2023-04-24T17:46:27;0.67;;;0.60;;
10653;SDS011;5375;51.250;6.776;2023-04-24T17:48:57;0.90;;;0.60;;
10653;SDS011;5375;51.250;6.776;2023-04-24T17:51:22;1.27;;;0.60;;
10653;SDS011;5375;51.250;6.776;2023-04-24T17:53:50;1.27;;;0.60;;
10653;SDS011;5375;51.250;6.776;2023-04-24T17:56:18;0.67;;;0.50;;
10653;SDS011;5375;51.250;6.776;2023-04-24T17:58:44;0.80;;;0.50;;
10653;SDS011;5375;51.250;6.776;2023-04-24T18:01:11;0.87;;;0.60;;
10653;SDS011;5375;51.250;6.776;2023-04-24T18:03:36;0.50;;;0.50;;
10653;SDS011;5375;51.250;6.776;2023-04-24T18:06:03;1.20;;;0.70;;
10653;SDS011;5375;51.250;6.776;2023-04-24T18:08:31;1.17;;;0.70;;
10653;SDS011;5375;51.250;6.776;2023-04-24T18:10:56;1.47;;;0.60;;
10653;SDS011;5375;51.250;6.776;2023-04-24T18:13:23;1.63;;;0.70;;
10653;SDS011;5375;51.250;6.776;2023-04-24T18:15:50;0.50;;;0.50;;
10653;SDS011;5375;51.250;6.776;2023-04-24T18:18:16;1.33;;;0.53;;
10653;SDS011;5375;51.250;6.776;2023-04-24T18:20:42;1.27;;;0.63;;
10653;SDS011;5375;51.250;6.776;2023-04-24T18:23:07;1.47;;;0.60;;
10653;SDS011;5375;51.250;6.776;2023-04-24T18:25:33;1.67;;;0.67;;
10653;SDS011;5375;51.250;6.776;2023-04-24T18:28:07;1.43;;;0.63;;
10653;SDS011;5375;51.250;6.776;2023-04-24T18:30:32;1.23;;;0.70;;
10653;SDS011;5375;51.250;6.776;2023-04-24T18:32:58;0.53;;;0.50;;
10653;SDS011;5375;51.250;6.776;2023-04-24T18:35:24;6.93;;;0.70;;
10653;SDS011;5375;51.250;6.776;2023-04-24T18:37:50;2.33;;;0.70;;
10653;SDS011;5375;51.250;6.776;2023-04-24T18:40:16;0.70;;;0.53;;
10653;SDS011;5375;51.250;6.776;2023-04-24T18:42:42;0.77;;;0.60;;
10653;SDS011;5375;51.250;6.776;2023-04-24T18:45:11;1.33;;;0.70;;
10653;SDS011;5375;51.250;6.776;2023-04-24T18:47:37;1.10;;;0.70;;
10653;SDS011;5375;51.250;6.776;2023-04-24T18:50:03;1.97;;;0.70;;
10653;SDS011;5375;51.250;6.776;2023-04-24T18:52:30;2.80;;;0.70;;
10653;SDS011;5375;51.250;6.776;2023-04-24T18:54:57;0.90;;;0.60;;
10653;SDS011;5375;51.250;6.776;2023-04-24T18:57:23;1.27;;;0.67;;
10653;SDS011;5375;51.250;6.776;2023-04-24T18:59:48;1.40;;;0.70;;
10653;SDS011;5375;51.250;6.776;2023-04-24T19:02:14;3.20;;;0.97;;
10653;SDS011;5375;51.250;6.776;2023-04-24T19:04:40;1.37;;;0.67;;
10653;SDS011;5375;51.250;6.776;2023-04-24T19:07:07;5.33;;;0.80;;
10653;SDS011;5375;51.250;6.776;2023-04-24T19:09:33;1.73;;;0.80;;
10653;SDS011;5375;51.250;6.776;2023-04-24T19:11:59;2.10;;;0.60;;
10653;SDS011;5375;51.250;6.776;2023-04-24T19:14:26;3.87;;;0.80;;